sensor_id;sensor_type;location;lat;lon;timestamp;temperature;humidity
17565;DHT22;62994;52.126;5.596;2023-08-31T00:01:36;14.80;99.90
17565;DHT22;62994;52.126;5.596;2023-08-31T00:04:18;14.80;99.90
17565;DHT22;62994;52.126;5.596;2023-08-31T00:06:45;14.70;99.90
17565;DHT22;62994;52.126;5.596;2023-08-31T00:09:12;14.70;99.90
17565;DHT22;62994;52.126;5.596;2023-08-31T00:11:55;14.70;99.90
17565;DHT22;62994;52.126;5.596;2023-08-31T00:14:23;14.70;99.90
17565;DHT22;62994;52.126;5.596;2023-08-31T00:16:52;14.70;99.90
17565;DHT22;62994;52.126;5.596;2023-08-31T00:19:19;14.60;99.90
17565;DHT22;62994;52.126;5.596;2023-08-31T00:21:46;14.60;99.90
17565;DHT22;62994;52.126;5.596;2023-08-31T00:24:14;14.60;99.90
17565;DHT22;62994;52.126;5.596;2023-08-31T00:26:41;14.60;99.90
17565;DHT22;62994;52.126;5.596;2023-08-31T00:29:10;14.50;99.90
17565;DHT22;62994;52.126;5.596;2023-08-31T00:31:40;14.50;99.90
17565;DHT22;62994;52.126;5.596;2023-08-31T00:34:08;14.50;99.90
17565;DHT22;62994;52.126;5.596;2023-08-31T00:36:37;14.50;99.90
17565;DHT22;62994;52.126;5.596;2023-08-31T00:39:04;14.40;99.90
17565;DHT22;62994;52.126;5.596;2023-08-31T00:41:36;14.40;99.90
17565;DHT22;62994;52.126;5.596;2023-08-31T00:44:04;14.40;99.90
17565;DHT22;62994;52.126;5.596;2023-08-31T00:46:33;14.40;99.90
17565;DHT22;62994;52.126;5.596;2023-08-31T00:49:03;14.40;99.90
17565;DHT22;62994;52.126;5.596;2023-08-31T00:51:30;14.40;99.90
17565;DHT22;62994;52.126;5.596;2023-08-31T00:53:58;14.40;99.90
17565;DHT22;62994;52.126;5.596;2023-08-31T00:56:25;14.40;99.90
17565;DHT22;62994;52.126;5.596;2023-08-31T00:58:52;14.40;99.90
17565;DHT22;62994;52.126;5.596;2023-08-31T01:01:26;14.40;99.90
17565;DHT22;62994;52.126;5.596;2023-08-31T01:04:01;14.40;99.90
17565;DHT22;62994;52.126;5.596;2023-08-31T01:06:39;14.40;99.90
17565;DHT22;62994;52.126;5.596;2023-08-31T01:09:13;14.40;99.90
17565;DHT22;62994;52.126;5.596;2023-08-31T01:11:49;14.40;99.90
17565;DHT22;62994;52.126;5.596;2023-08-31T01:14:23;14.40;99.90
17565;DHT22;62994;52.126;5.596;2023-08-31T01:16:53;14.40;99.90
17565;DHT22;62994;52.126;5.596;2023-08-31T01:19:33;14.40;99.90
17565;DHT22;62994;52.126;5.596;2023-08-31T01:22:07;14.40;99.90
17565;DHT22;62994;52.126;5.596;2023-08-31T01:24:38;14.40;99.90
17565;DHT22;62994;52.126;5.596;2023-08-31T01:27:05;14.40;99.90
17565;DHT22;62994;52.126;5.596;2023-08-31T01:29:32;14.40;99.90
17565;DHT22;62994;52.126;5.596;2023-08-31T01:32:05;14.40;99.90
17565;DHT22;62994;52.126;5.596;2023-08-31T01:34:32;14.40;99.90
17565;DHT22;62994;52.126;5.596;2023-08-31T01:37:04;14.40;99.90
17565;DHT22;62994;52.126;5.596;2023-08-31T01:39:39;14.50;99.90
17565;DHT22;62994;52.126;5.596;2023-08-31T01:42:12;14.40;99.90
17565;DHT22;62994;52.126;5.596;2023-08-31T01:44:45;14.40;99.90
17565;DHT22;62994;52.126;5.596;2023-08-31T01:47:15;14.40;99.90
17565;DHT22;62994;52.126;5.596;2023-08-31T01:49:44;14.40;99.90
17565;DHT22;62994;52.126;5.596;2023-08-31T01:52:23;14.50;99.90
17565;DHT22;62994;52.126;5.596;2023-08-31T01:54:51;14.50;99.90
17565;DHT22;62994;52.126;5.596;2023-08-31T01:57:18;14.50;99.90
17565;DHT22;62994;52.126;5.596;2023-08-31T01:59:48;14.40;99.90
17565;DHT22;62994;52.126;5.596;2023-08-31T02:02:17;14.40;99.90
17565;DHT22;62994;52.126;5.596;2023-08-31T02:04:44;14.40;99.90
17565;DHT22;62994;52.126;5.596;2023-08-31T02:07:12;14.40;99.90
17565;DHT22;62994;52.126;5.596;2023-08-31T02:09:39;14.40;99.90
17565;DHT22;62994;52.126;5.596;2023-08-31T02:12:09;14.40;99.90
17565;DHT22;62994;52.126;5.596;2023-08-31T02:14:42;14.40;99.90
17565;DHT22;62994;52.126;5.596;2023-08-31T02:17:11;14.40;99.90
17565;DHT22;62994;52.126;5.596;2023-08-31T02:19:38;14.50;99.90
17565;DHT22;62994;52.126;5.596;2023-08-31T02:22:07;14.50;99.90
17565;DHT22;62994;52.126;5.596;2023-08-31T02:24:34;14.50;99.90
17565;DHT22;62994;52.126;5.596;2023-08-31T02:27:03;14.50;99.90
17565;DHT22;62994;52.126;5.596;2023-08-31T02:29:31;14.50;99.90
17565;DHT22;62994;52.126;5.596;2023-08-31T02:32:04;14.60;99.90
17565;DHT22;62994;52.126;5.596;2023-08-31T02:34:31;14.60;99.90
17565;DHT22;62994;52.126;5.596;2023-08-31T02:36:58;14.60;99.90
17565;DHT22;62994;52.126;5.596;2023-08-31T02:39:25;14.70;99.90
17565;DHT22;62994;52.126;5.596;2023-08-31T02:41:57;14.70;99.90
17565;DHT22;62994;52.126;5.596;2023-08-31T02:44:24;14.70;99.90
17565;DHT22;62994;52.126;5.596;2023-08-31T02:46:53;14.60;99.90
17565;DHT22;62994;52.126;5.596;2023-08-31T02:49:22;14.60;99.90
17565;DHT22;62994;52.126;5.596;2023-08-31T02:51:52;14.70;99.90
17565;DHT22;62994;52.126;5.596;2023-08-31T02:54:19;14.70;99.90
17565;DHT22;62994;52.126;5.596;2023-08-31T02:56:51;14.60;99.90
17565;DHT22;62994;52.126;5.596;2023-08-31T02:59:18;14.60;99.90
17565;DHT22;62994;52.126;5.596;2023-08-31T03:01:48;14.60;99.90
17565;DHT22;62994;52.126;5.596;2023-08-31T03:04:17;14.60;99.90
17565;DHT22;62994;52.126;5.596;2023-08-31T03:06:44;14.70;99.90
17565;DHT22;62994;52.126;5.596;2023-08-31T03:09:16;14.70;99.90
17565;DHT22;62994;52.126;5.596;2023-08-31T03:11:47;14.70;99.90
17565;DHT22;62994;52.126;5.596;2023-08-31T03:14:18;14.70;99.90
17565;DHT22;62994;52.126;5.596;2023-08-31T03:16:46;14.70;99.90
17565;DHT22;62994;52.126;5.596;2023-08-31T03:19:14;14.70;99.90
17565;DHT22;62994;52.126;5.596;2023-08-31T03:21:46;14.70;99.90
17565;DHT22;62994;52.126;5.596;2023-08-31T03:24:14;14.60;99.90
17565;DHT22;62994;52.126;5.596;2023-08-31T03:26:41;14.60;99.90
17565;DHT22;62994;52.126;5.596;2023-08-31T03:29:08;14.60;99.90
17565;DHT22;62994;52.126;5.596;2023-08-31T03:31:37;14.60;99.90
17565;DHT22;62994;52.126;5.596;2023-08-31T03:34:04;14.50;99.90
17565;DHT22;62994;52.126;5.596;2023-08-31T03:36:32;14.50;99.90
17565;DHT22;62994;52.126;5.596;2023-08-31T03:39:01;14.50;99.90
17565;DHT22;62994;52.126;5.596;2023-08-31T03:41:31;14.40;99.90
17565;DHT22;62994;52.126;5.596;2023-08-31T03:43:58;14.40;99.90
17565;DHT22;62994;52.126;5.596;2023-08-31T03:46:28;14.40;99.90
17565;DHT22;62994;52.126;5.596;2023-08-31T03:48:57;14.50;99.90
17565;DHT22;62994;52.126;5.596;2023-08-31T03:51:33;14.50;99.90
17565;DHT22;62994;52.126;5.596;2023-08-31T03:54:03;14.60;99.90
17565;DHT22;62994;52.126;5.596;2023-08-31T03:56:30;14.50;99.90
17565;DHT22;62994;52.126;5.596;2023-08-31T03:58:58;14.60;99.90
17565;DHT22;62994;52.126;5.596;2023-08-31T04:01:34;14.50;99.90
17565;DHT22;62994;52.126;5.596;2023-08-31T04:04:01;14.50;99.90
17565;DHT22;62994;52.126;5.596;2023-08-31T04:06:31;14.50;99.90
17565;DHT22;62994;52.126;5.596;2023-08-31T04:08:58;14.40;99.90
17565;DHT22;62994;52.126;5.596;2023-08-31T04:11:27;14.40;99.90
17565;DHT22;62994;52.126;5.596;2023-08-31T04:13:56;14.40;99.90
17565;DHT22;62994;52.126;5.596;2023-08-31T04:16:24;14.30;99.90
17565;DHT22;62994;52.126;5.596;2023-08-31T04:18:54;14.30;99.90
17565;DHT22;62994;52.126;5.596;2023-08-31T04:21:29;14.30;99.90
17565;DHT22;62994;52.126;5.596;2023-08-31T04:23:58;14.30;99.90
17565;DHT22;62994;52.126;5.596;2023-08-31T04:26:27;14.40;99.90
17565;DHT22;62994;52.126;5.596;2023-08-31T04:28:55;14.40;99.90
17565;DHT22;62994;52.126;5.596;2023-08-31T04:31:22;14.30;99.90
17565;DHT22;62994;52.126;5.596;2023-08-31T04:33:50;14.30;99.90
17565;DHT22;62994;52.126;5.596;2023-08-31T04:36:19;14.40;99.90
17565;DHT22;62994;52.126;5.596;2023-08-31T04:38:48;14.40;99.90
17565;DHT22;62994;52.126;5.596;2023-08-31T04:41:16;14.40;99.90
17565;DHT22;62994;52.126;5.596;2023-08-31T04:43:44;14.40;99.90
17565;DHT22;62994;52.126;5.596;2023-08-31T04:46:15;14.40;99.90
17565;DHT22;62994;52.126;5.596;2023-08-31T04:48:42;14.40;99.90
17565;DHT22;62994;52.126;5.596;2023-08-31T04:51:27;14.40;99.90
17565;DHT22;62994;52.126;5.596;2023-08-31T04:53:55;14.40;99.90
17565;DHT22;62994;52.126;5.596;2023-08-31T04:56:22;14.40;99.90
17565;DHT22;62994;52.126;5.596;2023-08-31T04:58:51;14.40;99.90
17565;DHT22;62994;52.126;5.596;2023-08-31T05:01:18;14.40;99.90
17565;DHT22;62994;52.126;5.596;2023-08-31T05:03:50;14.40;99.90
17565;DHT22;62994;52.126;5.596;2023-08-31T05:06:17;14.40;99.90
17565;DHT22;62994;52.126;5.596;2023-08-31T05:08:50;14.40;99.90
17565;DHT22;62994;52.126;5.596;2023-08-31T05:11:17;14.40;99.90
17565;DHT22;62994;52.126;5.596;2023-08-31T05:13:44;14.40;99.90
17565;DHT22;62994;52.126;5.596;2023-08-31T05:16:13;14.40;99.90
17565;DHT22;62994;52.126;5.596;2023-08-31T05:18:48;14.40;99.90
17565;DHT22;62994;52.126;5.596;2023-08-31T05:21:17;14.50;99.90
17565;DHT22;62994;52.126;5.596;2023-08-31T05:23:44;14.40;99.90
17565;DHT22;62994;52.126;5.596;2023-08-31T05:26:11;14.40;99.90
17565;DHT22;62994;52.126;5.596;2023-08-31T05:28:40;14.40;99.90
17565;DHT22;62994;52.126;5.596;2023-08-31T05:31:07;14.50;99.90
17565;DHT22;62994;52.126;5.596;2023-08-31T05:33:35;14.50;99.90
17565;DHT22;62994;52.126;5.596;2023-08-31T05:36:06;14.50;99.90
17565;DHT22;62994;52.126;5.596;2023-08-31T05:38:34;14.50;99.90
17565;DHT22;62994;52.126;5.596;2023-08-31T05:41:05;14.50;99.90
17565;DHT22;62994;52.126;5.596;2023-08-31T05:43:33;14.60;99.90
17565;DHT22;62994;52.126;5.596;2023-08-31T05:46:05;14.50;99.90
17565;DHT22;62994;52.126;5.596;2023-08-31T05:48:32;14.60;99.90
17565;DHT22;62994;52.126;5.596;2023-08-31T05:51:01;14.60;99.90
17565;DHT22;62994;52.126;5.596;2023-08-31T05:53:34;14.60;99.90
17565;DHT22;62994;52.126;5.596;2023-08-31T05:56:01;14.60;99.90
17565;DHT22;62994;52.126;5.596;2023-08-31T05:58:31;14.70;99.90
17565;DHT22;62994;52.126;5.596;2023-08-31T06:00:59;14.70;99.90
17565;DHT22;62994;52.126;5.596;2023-08-31T06:03:26;14.70;99.90
17565;DHT22;62994;52.126;5.596;2023-08-31T06:05:54;14.70;99.90
17565;DHT22;62994;52.126;5.596;2023-08-31T06:08:26;14.80;99.90
17565;DHT22;62994;52.126;5.596;2023-08-31T06:11:02;14.80;99.90
17565;DHT22;62994;52.126;5.596;2023-08-31T06:13:29;14.80;99.90
17565;DHT22;62994;52.126;5.596;2023-08-31T06:15:57;14.90;99.90
17565;DHT22;62994;52.126;5.596;2023-08-31T06:18:26;14.90;99.90
17565;DHT22;62994;52.126;5.596;2023-08-31T06:20:53;14.90;99.90
17565;DHT22;62994;52.126;5.596;2023-08-31T06:23:20;14.90;99.90
17565;DHT22;62994;52.126;5.596;2023-08-31T06:25:49;15.00;99.90
17565;DHT22;62994;52.126;5.596;2023-08-31T06:28:19;15.00;99.90
17565;DHT22;62994;52.126;5.596;2023-08-31T06:30:46;15.00;99.90
17565;DHT22;62994;52.126;5.596;2023-08-31T06:33:13;15.00;99.90
17565;DHT22;62994;52.126;5.596;2023-08-31T06:35:42;14.90;99.90
17565;DHT22;62994;52.126;5.596;2023-08-31T06:38:09;15.00;99.90
17565;DHT22;62994;52.126;5.596;2023-08-31T06:40:38;15.00;99.90
17565;DHT22;62994;52.126;5.596;2023-08-31T06:43:07;15.00;99.90
17565;DHT22;62994;52.126;5.596;2023-08-31T06:45:34;15.00;99.90
17565;DHT22;62994;52.126;5.596;2023-08-31T06:48:01;15.00;99.90
17565;DHT22;62994;52.126;5.596;2023-08-31T06:50:30;15.10;99.90
17565;DHT22;62994;52.126;5.596;2023-08-31T06:52:58;15.10;99.90
17565;DHT22;62994;52.126;5.596;2023-08-31T06:55:25;15.10;99.90
17565;DHT22;62994;52.126;5.596;2023-08-31T06:57:58;15.20;99.90
17565;DHT22;62994;52.126;5.596;2023-08-31T07:00:26;15.20;99.90
17565;DHT22;62994;52.126;5.596;2023-08-31T07:02:54;15.20;99.90
17565;DHT22;62994;52.126;5.596;2023-08-31T07:05:25;15.20;99.90
17565;DHT22;62994;52.126;5.596;2023-08-31T07:07:55;15.20;99.90
17565;DHT22;62994;52.126;5.596;2023-08-31T07:10:22;15.30;99.90
17565;DHT22;62994;52.126;5.596;2023-08-31T07:12:53;15.30;99.90
17565;DHT22;62994;52.126;5.596;2023-08-31T07:15:25;15.30;99.90
17565;DHT22;62994;52.126;5.596;2023-08-31T07:17:52;15.40;99.90
17565;DHT22;62994;52.126;5.596;2023-08-31T07:20:20;15.40;99.90
17565;DHT22;62994;52.126;5.596;2023-08-31T07:22:47;15.40;99.90
17565;DHT22;62994;52.126;5.596;2023-08-31T07:25:14;15.50;99.90
17565;DHT22;62994;52.126;5.596;2023-08-31T07:27:46;15.60;99.90
17565;DHT22;62994;52.126;5.596;2023-08-31T07:30:13;15.60;99.90
17565;DHT22;62994;52.126;5.596;2023-08-31T07:32:44;15.70;99.90
17565;DHT22;62994;52.126;5.596;2023-08-31T07:35:16;15.70;99.90
17565;DHT22;62994;52.126;5.596;2023-08-31T07:37:43;15.80;99.90
17565;DHT22;62994;52.126;5.596;2023-08-31T07:40:15;15.80;99.90
17565;DHT22;62994;52.126;5.596;2023-08-31T07:42:47;15.80;99.90
17565;DHT22;62994;52.126;5.596;2023-08-31T07:45:14;15.80;99.90
17565;DHT22;62994;52.126;5.596;2023-08-31T07:47:43;15.80;99.90
17565;DHT22;62994;52.126;5.596;2023-08-31T07:50:10;15.90;99.90
17565;DHT22;62994;52.126;5.596;2023-08-31T07:52:37;15.90;99.90
17565;DHT22;62994;52.126;5.596;2023-08-31T07:55:05;15.90;99.90
17565;DHT22;62994;52.126;5.596;2023-08-31T07:57:32;16.00;99.90
17565;DHT22;62994;52.126;5.596;2023-08-31T08:00:00;15.90;99.90
17565;DHT22;62994;52.126;5.596;2023-08-31T08:02:27;16.00;99.90
17565;DHT22;62994;52.126;5.596;2023-08-31T08:04:55;16.00;99.90
17565;DHT22;62994;52.126;5.596;2023-08-31T08:07:23;16.00;99.90
17565;DHT22;62994;52.126;5.596;2023-08-31T08:09:50;16.10;99.90
17565;DHT22;62994;52.126;5.596;2023-08-31T08:12:17;16.10;99.90
17565;DHT22;62994;52.126;5.596;2023-08-31T08:14:49;16.10;99.90
17565;DHT22;62994;52.126;5.596;2023-08-31T08:17:16;16.10;99.90
17565;DHT22;62994;52.126;5.596;2023-08-31T08:19:43;16.20;99.90
17565;DHT22;62994;52.126;5.596;2023-08-31T08:22:12;16.20;99.90
17565;DHT22;62994;52.126;5.596;2023-08-31T08:24:39;16.20;99.90
17565;DHT22;62994;52.126;5.596;2023-08-31T08:27:06;16.20;99.90
17565;DHT22;62994;52.126;5.596;2023-08-31T08:29:33;16.30;99.90
17565;DHT22;62994;52.126;5.596;2023-08-31T08:32:05;16.30;99.90
17565;DHT22;62994;52.126;5.596;2023-08-31T08:34:34;16.40;99.90
17565;DHT22;62994;52.126;5.596;2023-08-31T08:37:01;16.50;99.90
17565;DHT22;62994;52.126;5.596;2023-08-31T08:39:30;16.50;99.90
17565;DHT22;62994;52.126;5.596;2023-08-31T08:41:59;16.60;99.90
17565;DHT22;62994;52.126;5.596;2023-08-31T08:44:32;16.70;99.90
17565;DHT22;62994;52.126;5.596;2023-08-31T08:47:04;16.80;99.90
17565;DHT22;62994;52.126;5.596;2023-08-31T08:49:31;16.80;99.90
17565;DHT22;62994;52.126;5.596;2023-08-31T08:52:01;16.80;99.90
17565;DHT22;62994;52.126;5.596;2023-08-31T08:54:30;16.90;99.90
17565;DHT22;62994;52.126;5.596;2023-08-31T08:56:59;16.90;99.90
17565;DHT22;62994;52.126;5.596;2023-08-31T08:59:27;17.00;99.90
17565;DHT22;62994;52.126;5.596;2023-08-31T09:01:54;17.00;99.90
17565;DHT22;62994;52.126;5.596;2023-08-31T09:04:21;17.00;99.90
17565;DHT22;62994;52.126;5.596;2023-08-31T09:06:50;17.00;99.90
17565;DHT22;62994;52.126;5.596;2023-08-31T09:09:17;17.10;99.90
17565;DHT22;62994;52.126;5.596;2023-08-31T09:11:50;17.10;99.90
17565;DHT22;62994;52.126;5.596;2023-08-31T09:14:18;17.20;99.90
17565;DHT22;62994;52.126;5.596;2023-08-31T09:16:46;17.20;99.90
17565;DHT22;62994;52.126;5.596;2023-08-31T09:19:22;17.30;99.90
17565;DHT22;62994;52.126;5.596;2023-08-31T09:21:51;17.40;99.90
17565;DHT22;62994;52.126;5.596;2023-08-31T09:24:18;17.40;99.90
17565;DHT22;62994;52.126;5.596;2023-08-31T09:26:47;17.50;99.90
17565;DHT22;62994;52.126;5.596;2023-08-31T09:29:15;17.70;99.90
17565;DHT22;62994;52.126;5.596;2023-08-31T09:31:43;17.80;99.90
17565;DHT22;62994;52.126;5.596;2023-08-31T09:34:11;17.90;99.90
17565;DHT22;62994;52.126;5.596;2023-08-31T09:36:38;18.10;99.90
17565;DHT22;62994;52.126;5.596;2023-08-31T09:39:06;18.20;99.90
17565;DHT22;62994;52.126;5.596;2023-08-31T09:41:52;18.30;99.90
17565;DHT22;62994;52.126;5.596;2023-08-31T09:44:23;18.40;99.90
17565;DHT22;62994;52.126;5.596;2023-08-31T09:46:50;18.50;99.90
17565;DHT22;62994;52.126;5.596;2023-08-31T09:49:22;18.50;99.90
17565;DHT22;62994;52.126;5.596;2023-08-31T09:51:52;18.40;99.90
17565;DHT22;62994;52.126;5.596;2023-08-31T09:54:20;18.40;99.90
17565;DHT22;62994;52.126;5.596;2023-08-31T09:56:53;18.50;99.90
17565;DHT22;62994;52.126;5.596;2023-08-31T09:59:24;18.40;99.90
17565;DHT22;62994;52.126;5.596;2023-08-31T10:01:56;18.50;99.90
17565;DHT22;62994;52.126;5.596;2023-08-31T10:04:23;18.40;99.90
17565;DHT22;62994;52.126;5.596;2023-08-31T10:06:51;18.50;99.90
17565;DHT22;62994;52.126;5.596;2023-08-31T10:09:19;18.60;99.90
17565;DHT22;62994;52.126;5.596;2023-08-31T10:11:57;18.80;99.90
17565;DHT22;62994;52.126;5.596;2023-08-31T10:14:26;18.90;99.90
17565;DHT22;62994;52.126;5.596;2023-08-31T10:16:56;19.00;99.90
17565;DHT22;62994;52.126;5.596;2023-08-31T10:19:24;19.10;99.90
17565;DHT22;62994;52.126;5.596;2023-08-31T10:21:51;19.20;99.90
17565;DHT22;62994;52.126;5.596;2023-08-31T10:24:18;19.30;99.90
17565;DHT22;62994;52.126;5.596;2023-08-31T10:26:45;19.50;99.90
17565;DHT22;62994;52.126;5.596;2023-08-31T10:29:27;19.60;99.90
17565;DHT22;62994;52.126;5.596;2023-08-31T10:32:00;19.70;99.90
17565;DHT22;62994;52.126;5.596;2023-08-31T10:34:39;19.80;99.90
17565;DHT22;62994;52.126;5.596;2023-08-31T10:37:20;20.00;99.90
17565;DHT22;62994;52.126;5.596;2023-08-31T10:39:48;20.10;99.90
17565;DHT22;62994;52.126;5.596;2023-08-31T10:42:15;20.10;99.90
17565;DHT22;62994;52.126;5.596;2023-08-31T10:44:43;20.10;99.90
17565;DHT22;62994;52.126;5.596;2023-08-31T10:47:16;20.10;99.90
17565;DHT22;62994;52.126;5.596;2023-08-31T10:49:50;20.20;99.90
17565;DHT22;62994;52.126;5.596;2023-08-31T10:52:23;20.30;99.90
17565;DHT22;62994;52.126;5.596;2023-08-31T10:54:55;20.30;99.90
17565;DHT22;62994;52.126;5.596;2023-08-31T10:57:29;20.40;99.90
17565;DHT22;62994;52.126;5.596;2023-08-31T10:59:58;20.50;99.90
17565;DHT22;62994;52.126;5.596;2023-08-31T11:02:33;20.70;99.90
17565;DHT22;62994;52.126;5.596;2023-08-31T11:05:08;20.80;99.90
17565;DHT22;62994;52.126;5.596;2023-08-31T11:07:36;21.10;99.90
17565;DHT22;62994;52.126;5.596;2023-08-31T11:10:14;21.30;99.90
17565;DHT22;62994;52.126;5.596;2023-08-31T11:12:43;21.40;99.90
17565;DHT22;62994;52.126;5.596;2023-08-31T11:15:13;21.50;99.90
17565;DHT22;62994;52.126;5.596;2023-08-31T11:17:41;21.60;99.90
17565;DHT22;62994;52.126;5.596;2023-08-31T11:20:12;21.70;99.90
17565;DHT22;62994;52.126;5.596;2023-08-31T11:22:42;21.80;99.90
17565;DHT22;62994;52.126;5.596;2023-08-31T11:25:14;21.90;99.90
17565;DHT22;62994;52.126;5.596;2023-08-31T11:27:53;22.00;99.90
17565;DHT22;62994;52.126;5.596;2023-08-31T11:30:21;22.10;99.90
17565;DHT22;62994;52.126;5.596;2023-08-31T11:32:51;22.20;99.90
17565;DHT22;62994;52.126;5.596;2023-08-31T11:35:19;22.40;99.90
17565;DHT22;62994;52.126;5.596;2023-08-31T11:37:50;22.40;99.90
17565;DHT22;62994;52.126;5.596;2023-08-31T11:40:19;22.50;99.90
17565;DHT22;62994;52.126;5.596;2023-08-31T11:42:48;22.50;99.90
17565;DHT22;62994;52.126;5.596;2023-08-31T11:45:15;22.50;99.90
17565;DHT22;62994;52.126;5.596;2023-08-31T11:47:44;22.50;99.90
17565;DHT22;62994;52.126;5.596;2023-08-31T11:50:16;22.60;99.90
17565;DHT22;62994;52.126;5.596;2023-08-31T11:52:43;22.80;99.90
17565;DHT22;62994;52.126;5.596;2023-08-31T11:55:12;22.80;99.90
17565;DHT22;62994;52.126;5.596;2023-08-31T11:57:39;22.90;99.90
17565;DHT22;62994;52.126;5.596;2023-08-31T12:00:16;22.90;99.90
17565;DHT22;62994;52.126;5.596;2023-08-31T12:02:55;22.90;99.90
17565;DHT22;62994;52.126;5.596;2023-08-31T12:05:22;22.90;99.90
17565;DHT22;62994;52.126;5.596;2023-08-31T12:07:50;23.00;99.90
17565;DHT22;62994;52.126;5.596;2023-08-31T12:10:20;23.10;99.90
17565;DHT22;62994;52.126;5.596;2023-08-31T12:12:47;23.10;99.90
17565;DHT22;62994;52.126;5.596;2023-08-31T12:15:16;23.30;99.90
17565;DHT22;62994;52.126;5.596;2023-08-31T12:17:49;23.30;99.90
17565;DHT22;62994;52.126;5.596;2023-08-31T12:20:25;23.40;99.90
17565;DHT22;62994;52.126;5.596;2023-08-31T12:22:53;23.50;99.90
17565;DHT22;62994;52.126;5.596;2023-08-31T12:25:20;23.70;99.90
17565;DHT22;62994;52.126;5.596;2023-08-31T12:27:49;23.80;99.90
17565;DHT22;62994;52.126;5.596;2023-08-31T12:30:18;23.90;99.90
17565;DHT22;62994;52.126;5.596;2023-08-31T12:32:47;24.00;99.90
17565;DHT22;62994;52.126;5.596;2023-08-31T12:35:17;24.10;99.90
17565;DHT22;62994;52.126;5.596;2023-08-31T12:37:44;24.20;99.90
17565;DHT22;62994;52.126;5.596;2023-08-31T12:40:17;24.30;99.90
17565;DHT22;62994;52.126;5.596;2023-08-31T12:42:50;24.40;99.90
17565;DHT22;62994;52.126;5.596;2023-08-31T12:45:18;24.50;99.90
17565;DHT22;62994;52.126;5.596;2023-08-31T12:47:45;24.60;99.90
17565;DHT22;62994;52.126;5.596;2023-08-31T12:50:17;24.70;99.90
17565;DHT22;62994;52.126;5.596;2023-08-31T12:52:45;24.70;99.90
17565;DHT22;62994;52.126;5.596;2023-08-31T12:55:12;24.90;99.90
17565;DHT22;62994;52.126;5.596;2023-08-31T12:57:40;24.90;99.90
17565;DHT22;62994;52.126;5.596;2023-08-31T13:00:08;25.10;99.90
17565;DHT22;62994;52.126;5.596;2023-08-31T13:02:37;25.10;99.90
17565;DHT22;62994;52.126;5.596;2023-08-31T13:05:05;25.10;99.90
17565;DHT22;62994;52.126;5.596;2023-08-31T13:07:35;25.20;99.90
17565;DHT22;62994;52.126;5.596;2023-08-31T13:10:04;25.30;99.90
17565;DHT22;62994;52.126;5.596;2023-08-31T13:12:33;25.30;99.90
17565;DHT22;62994;52.126;5.596;2023-08-31T13:15:01;25.30;99.90
17565;DHT22;62994;52.126;5.596;2023-08-31T13:17:29;25.30;99.90
17565;DHT22;62994;52.126;5.596;2023-08-31T13:20:02;25.20;99.90
17565;DHT22;62994;52.126;5.596;2023-08-31T13:22:30;25.30;99.90
17565;DHT22;62994;52.126;5.596;2023-08-31T13:25:01;25.30;99.90
17565;DHT22;62994;52.126;5.596;2023-08-31T13:27:30;25.30;99.90
17565;DHT22;62994;52.126;5.596;2023-08-31T13:30:05;25.30;99.90
17565;DHT22;62994;52.126;5.596;2023-08-31T13:32:37;25.40;99.90
17565;DHT22;62994;52.126;5.596;2023-08-31T13:35:08;25.40;99.90
17565;DHT22;62994;52.126;5.596;2023-08-31T13:37:36;25.50;99.90
17565;DHT22;62994;52.126;5.596;2023-08-31T13:40:06;25.60;99.90
17565;DHT22;62994;52.126;5.596;2023-08-31T13:42:53;25.70;99.90
17565;DHT22;62994;52.126;5.596;2023-08-31T13:45:27;25.80;99.90
17565;DHT22;62994;52.126;5.596;2023-08-31T13:47:56;25.90;99.90
17565;DHT22;62994;52.126;5.596;2023-08-31T13:50:27;26.00;99.90
17565;DHT22;62994;52.126;5.596;2023-08-31T13:52:55;26.10;99.90
17565;DHT22;62994;52.126;5.596;2023-08-31T13:55:23;26.20;99.90
17565;DHT22;62994;52.126;5.596;2023-08-31T13:57:52;26.30;99.90
17565;DHT22;62994;52.126;5.596;2023-08-31T14:00:19;26.40;99.90
17565;DHT22;62994;52.126;5.596;2023-08-31T14:02:47;26.50;99.90
17565;DHT22;62994;52.126;5.596;2023-08-31T14:05:14;26.60;99.90
17565;DHT22;62994;52.126;5.596;2023-08-31T14:07:41;26.70;99.90
17565;DHT22;62994;52.126;5.596;2023-08-31T14:10:08;26.80;99.90
17565;DHT22;62994;52.126;5.596;2023-08-31T14:12:37;26.80;99.90
17565;DHT22;62994;52.126;5.596;2023-08-31T14:15:06;26.90;99.90
17565;DHT22;62994;52.126;5.596;2023-08-31T14:17:33;26.90;99.90
17565;DHT22;62994;52.126;5.596;2023-08-31T14:20:00;27.00;99.90
17565;DHT22;62994;52.126;5.596;2023-08-31T14:22:33;27.10;99.90
17565;DHT22;62994;52.126;5.596;2023-08-31T14:25:00;27.10;99.90
17565;DHT22;62994;52.126;5.596;2023-08-31T14:27:29;27.20;99.90
17565;DHT22;62994;52.126;5.596;2023-08-31T14:29:58;27.20;99.90
17565;DHT22;62994;52.126;5.596;2023-08-31T14:32:25;27.20;99.90
17565;DHT22;62994;52.126;5.596;2023-08-31T14:34:55;27.30;99.90
17565;DHT22;62994;52.126;5.596;2023-08-31T14:37:23;27.40;99.90
17565;DHT22;62994;52.126;5.596;2023-08-31T14:39:50;27.50;99.90
17565;DHT22;62994;52.126;5.596;2023-08-31T14:42:17;27.50;99.90
17565;DHT22;62994;52.126;5.596;2023-08-31T14:44:47;27.40;99.90
17565;DHT22;62994;52.126;5.596;2023-08-31T14:47:17;27.40;99.90
17565;DHT22;62994;52.126;5.596;2023-08-31T14:49:44;27.40;99.90
17565;DHT22;62994;52.126;5.596;2023-08-31T14:52:12;27.30;99.90
17565;DHT22;62994;52.126;5.596;2023-08-31T14:54:42;27.20;99.90
17565;DHT22;62994;52.126;5.596;2023-08-31T14:57:10;27.20;99.90
17565;DHT22;62994;52.126;5.596;2023-08-31T14:59:40;27.10;99.90
17565;DHT22;62994;52.126;5.596;2023-08-31T15:02:07;27.10;99.90
17565;DHT22;62994;52.126;5.596;2023-08-31T15:04:36;27.20;99.90
17565;DHT22;62994;52.126;5.596;2023-08-31T15:07:03;27.20;99.90
17565;DHT22;62994;52.126;5.596;2023-08-31T15:09:33;27.20;99.90
17565;DHT22;62994;52.126;5.596;2023-08-31T15:12:03;27.30;99.90
17565;DHT22;62994;52.126;5.596;2023-08-31T15:14:31;27.40;99.90
17565;DHT22;62994;52.126;5.596;2023-08-31T15:16:58;27.40;99.90
17565;DHT22;62994;52.126;5.596;2023-08-31T15:19:25;27.50;99.90
17565;DHT22;62994;52.126;5.596;2023-08-31T15:21:56;27.50;99.90
17565;DHT22;62994;52.126;5.596;2023-08-31T15:24:28;27.40;99.90
17565;DHT22;62994;52.126;5.596;2023-08-31T15:26:56;27.30;99.90
17565;DHT22;62994;52.126;5.596;2023-08-31T15:29:24;27.10;99.90
17565;DHT22;62994;52.126;5.596;2023-08-31T15:31:55;26.90;99.90
17565;DHT22;62994;52.126;5.596;2023-08-31T15:34:22;26.90;99.90
17565;DHT22;62994;52.126;5.596;2023-08-31T15:36:59;26.70;99.90
17565;DHT22;62994;52.126;5.596;2023-08-31T15:39:26;26.60;99.90
17565;DHT22;62994;52.126;5.596;2023-08-31T15:42:00;26.40;99.90
17565;DHT22;62994;52.126;5.596;2023-08-31T15:44:27;26.20;99.90